sensor_id;sensor_type;location;lat;lon;timestamp;temperature;humidity
65462;DHT22;53236;43.666;18.444;2023-04-29T00:01:32;10.20;99.90
65462;DHT22;53236;43.666;18.444;2023-04-29T00:03:58;10.20;99.90
65462;DHT22;53236;43.666;18.444;2023-04-29T00:06:24;10.20;99.90
65462;DHT22;53236;43.666;18.444;2023-04-29T00:08:50;10.20;99.90
65462;DHT22;53236;43.666;18.444;2023-04-29T00:11:16;10.30;99.90
65462;DHT22;53236;43.666;18.444;2023-04-29T00:13:42;10.20;99.90
65462;DHT22;53236;43.666;18.444;2023-04-29T00:16:09;10.20;99.90
65462;DHT22;53236;43.666;18.444;2023-04-29T00:18:35;10.20;99.90
65462;DHT22;53236;43.666;18.444;2023-04-29T00:21:02;10.20;99.90
65462;DHT22;53236;43.666;18.444;2023-04-29T00:23:31;10.20;99.90
65462;DHT22;53236;43.666;18.444;2023-04-29T00:25:57;10.20;99.90
65462;DHT22;53236;43.666;18.444;2023-04-29T00:28:23;10.10;99.90
65462;DHT22;53236;43.666;18.444;2023-04-29T00:30:48;10.10;99.90
65462;DHT22;53236;43.666;18.444;2023-04-29T00:33:14;10.00;99.90
65462;DHT22;53236;43.666;18.444;2023-04-29T00:35:40;10.00;99.90
65462;DHT22;53236;43.666;18.444;2023-04-29T00:38:06;10.00;99.90
65462;DHT22;53236;43.666;18.444;2023-04-29T00:40:31;10.10;99.90
65462;DHT22;53236;43.666;18.444;2023-04-29T00:42:57;10.10;99.90
65462;DHT22;53236;43.666;18.444;2023-04-29T00:45:23;10.10;99.90
65462;DHT22;53236;43.666;18.444;2023-04-29T00:47:49;10.10;99.90
65462;DHT22;53236;43.666;18.444;2023-04-29T00:50:14;10.00;99.90
65462;DHT22;53236;43.666;18.444;2023-04-29T00:52:41;10.00;99.90
65462;DHT22;53236;43.666;18.444;2023-04-29T00:55:07;10.00;99.90
65462;DHT22;53236;43.666;18.444;2023-04-29T00:57:33;10.00;99.90
65462;DHT22;53236;43.666;18.444;2023-04-29T00:59:59;10.00;99.90
65462;DHT22;53236;43.666;18.444;2023-04-29T01:02:26;10.00;99.90
65462;DHT22;53236;43.666;18.444;2023-04-29T01:04:52;10.00;99.90
65462;DHT22;53236;43.666;18.444;2023-04-29T01:07:30;10.00;99.90
65462;DHT22;53236;43.666;18.444;2023-04-29T01:10:21;10.00;99.90
65462;DHT22;53236;43.666;18.444;2023-04-29T01:13:08;10.00;99.90
65462;DHT22;53236;43.666;18.444;2023-04-29T01:19:01;9.90;99.90
65462;DHT22;53236;43.666;18.444;2023-04-29T01:21:25;9.90;99.90
65462;DHT22;53236;43.666;18.444;2023-04-29T01:23:52;9.90;99.90
65462;DHT22;53236;43.666;18.444;2023-04-29T01:26:23;9.90;99.90
65462;DHT22;53236;43.666;18.444;2023-04-29T01:29:00;9.90;99.90
65462;DHT22;53236;43.666;18.444;2023-04-29T01:31:50;9.90;99.90
65462;DHT22;53236;43.666;18.444;2023-04-29T01:34:53;9.90;99.90
65462;DHT22;53236;43.666;18.444;2023-04-29T01:38:25;9.90;99.90
65462;DHT22;53236;43.666;18.444;2023-04-29T01:40:36;9.90;99.90
65462;DHT22;53236;43.666;18.444;2023-04-29T01:43:04;9.90;99.90
65462;DHT22;53236;43.666;18.444;2023-04-29T01:45:33;9.80;99.90
65462;DHT22;53236;43.666;18.444;2023-04-29T01:48:03;9.70;99.90
65462;DHT22;53236;43.666;18.444;2023-04-29T01:50:29;9.70;99.90
65462;DHT22;53236;43.666;18.444;2023-04-29T01:52:55;9.70;99.90
65462;DHT22;53236;43.666;18.444;2023-04-29T01:55:21;9.70;99.90
65462;DHT22;53236;43.666;18.444;2023-04-29T01:57:47;9.70;99.90
65462;DHT22;53236;43.666;18.444;2023-04-29T02:00:12;9.70;99.90
65462;DHT22;53236;43.666;18.444;2023-04-29T02:02:38;9.70;99.90
65462;DHT22;53236;43.666;18.444;2023-04-29T02:05:04;9.60;99.90
65462;DHT22;53236;43.666;18.444;2023-04-29T02:07:30;9.70;99.90
65462;DHT22;53236;43.666;18.444;2023-04-29T02:09:56;9.70;99.90
65462;DHT22;53236;43.666;18.444;2023-04-29T02:12:21;9.70;99.90
65462;DHT22;53236;43.666;18.444;2023-04-29T02:14:51;9.70;99.90
65462;DHT22;53236;43.666;18.444;2023-04-29T02:17:17;9.60;99.90
65462;DHT22;53236;43.666;18.444;2023-04-29T02:19:43;9.70;99.90
65462;DHT22;53236;43.666;18.444;2023-04-29T02:22:09;9.70;99.90
65462;DHT22;53236;43.666;18.444;2023-04-29T02:24:37;9.70;99.90
65462;DHT22;53236;43.666;18.444;2023-04-29T02:27:03;9.70;99.90
65462;DHT22;53236;43.666;18.444;2023-04-29T02:29:31;9.70;99.90
65462;DHT22;53236;43.666;18.444;2023-04-29T02:31:57;9.70;99.90
65462;DHT22;53236;43.666;18.444;2023-04-29T02:34:23;9.70;99.90
65462;DHT22;53236;43.666;18.444;2023-04-29T02:36:49;9.70;99.90
65462;DHT22;53236;43.666;18.444;2023-04-29T02:39:15;9.60;99.90
65462;DHT22;53236;43.666;18.444;2023-04-29T02:41:41;9.70;99.90
65462;DHT22;53236;43.666;18.444;2023-04-29T02:44:07;9.70;99.90
65462;DHT22;53236;43.666;18.444;2023-04-29T02:46:33;9.70;99.90
65462;DHT22;53236;43.666;18.444;2023-04-29T02:49:00;9.60;99.90
65462;DHT22;53236;43.666;18.444;2023-04-29T02:51:27;9.60;99.90
65462;DHT22;53236;43.666;18.444;2023-04-29T02:53:53;9.60;99.90
65462;DHT22;53236;43.666;18.444;2023-04-29T02:56:19;9.60;99.90
65462;DHT22;53236;43.666;18.444;2023-04-29T02:58:46;9.50;99.90
65462;DHT22;53236;43.666;18.444;2023-04-29T03:01:11;9.60;99.90
65462;DHT22;53236;43.666;18.444;2023-04-29T03:03:37;9.60;99.90
65462;DHT22;53236;43.666;18.444;2023-04-29T03:06:03;9.60;99.90
65462;DHT22;53236;43.666;18.444;2023-04-29T03:08:29;9.60;99.90
65462;DHT22;53236;43.666;18.444;2023-04-29T03:10:54;9.60;99.90
65462;DHT22;53236;43.666;18.444;2023-04-29T03:13:20;9.60;99.90
65462;DHT22;53236;43.666;18.444;2023-04-29T03:15:47;9.60;99.90
65462;DHT22;53236;43.666;18.444;2023-04-29T03:18:13;9.60;99.90
65462;DHT22;53236;43.666;18.444;2023-04-29T03:20:38;9.60;99.90
65462;DHT22;53236;43.666;18.444;2023-04-29T03:23:04;9.60;99.90
65462;DHT22;53236;43.666;18.444;2023-04-29T03:25:30;9.60;99.90
65462;DHT22;53236;43.666;18.444;2023-04-29T03:27:56;9.60;99.90
65462;DHT22;53236;43.666;18.444;2023-04-29T03:30:21;9.50;99.90
65462;DHT22;53236;43.666;18.444;2023-04-29T03:32:47;9.50;99.90
65462;DHT22;53236;43.666;18.444;2023-04-29T03:35:13;9.50;99.90
65462;DHT22;53236;43.666;18.444;2023-04-29T03:37:39;9.60;99.90
65462;DHT22;53236;43.666;18.444;2023-04-29T03:40:06;9.60;99.90
65462;DHT22;53236;43.666;18.444;2023-04-29T03:42:31;9.60;99.90
65462;DHT22;53236;43.666;18.444;2023-04-29T03:44:57;9.60;99.90
65462;DHT22;53236;43.666;18.444;2023-04-29T03:47:23;9.60;99.90
65462;DHT22;53236;43.666;18.444;2023-04-29T03:49:49;9.50;99.90
65462;DHT22;53236;43.666;18.444;2023-04-29T03:52:14;9.60;99.90
65462;DHT22;53236;43.666;18.444;2023-04-29T03:54:41;9.60;99.90
65462;DHT22;53236;43.666;18.444;2023-04-29T03:57:06;9.70;99.90
65462;DHT22;53236;43.666;18.444;2023-04-29T03:59:32;9.60;99.90
65462;DHT22;53236;43.666;18.444;2023-04-29T04:01:58;9.50;99.90
65462;DHT22;53236;43.666;18.444;2023-04-29T04:04:24;9.50;99.90
65462;DHT22;53236;43.666;18.444;2023-04-29T04:06:50;9.50;99.90
65462;DHT22;53236;43.666;18.444;2023-04-29T04:09:19;9.50;99.90
65462;DHT22;53236;43.666;18.444;2023-04-29T04:11:45;9.50;99.90
65462;DHT22;53236;43.666;18.444;2023-04-29T04:14:11;9.60;99.90
65462;DHT22;53236;43.666;18.444;2023-04-29T04:16:37;9.60;99.90
65462;DHT22;53236;43.666;18.444;2023-04-29T04:19:03;9.60;99.90
65462;DHT22;53236;43.666;18.444;2023-04-29T04:21:29;9.60;99.90
65462;DHT22;53236;43.666;18.444;2023-04-29T04:23:56;9.70;99.90
65462;DHT22;53236;43.666;18.444;2023-04-29T04:26:22;9.50;99.90
65462;DHT22;53236;43.666;18.444;2023-04-29T04:28:48;9.50;99.90
65462;DHT22;53236;43.666;18.444;2023-04-29T04:31:13;9.50;99.90
65462;DHT22;53236;43.666;18.444;2023-04-29T04:33:40;9.60;99.90
65462;DHT22;53236;43.666;18.444;2023-04-29T04:36:06;9.70;99.90
65462;DHT22;53236;43.666;18.444;2023-04-29T04:38:32;9.80;99.90
65462;DHT22;53236;43.666;18.444;2023-04-29T04:40:58;9.70;99.90
65462;DHT22;53236;43.666;18.444;2023-04-29T04:43:24;9.70;99.90
65462;DHT22;53236;43.666;18.444;2023-04-29T04:45:50;9.70;99.90
65462;DHT22;53236;43.666;18.444;2023-04-29T04:48:16;9.70;99.90
65462;DHT22;53236;43.666;18.444;2023-04-29T04:50:42;9.80;99.90
65462;DHT22;53236;43.666;18.444;2023-04-29T04:53:07;9.80;99.90
65462;DHT22;53236;43.666;18.444;2023-04-29T04:55:33;9.80;99.90
65462;DHT22;53236;43.666;18.444;2023-04-29T04:57:59;9.80;99.90
65462;DHT22;53236;43.666;18.444;2023-04-29T05:00:25;9.90;99.90
65462;DHT22;53236;43.666;18.444;2023-04-29T05:02:51;10.00;99.90
65462;DHT22;53236;43.666;18.444;2023-04-29T05:05:16;10.10;99.90
65462;DHT22;53236;43.666;18.444;2023-04-29T05:07:42;10.20;99.90
65462;DHT22;53236;43.666;18.444;2023-04-29T05:10:08;10.10;99.90
65462;DHT22;53236;43.666;18.444;2023-04-29T05:12:35;10.10;99.90
65462;DHT22;53236;43.666;18.444;2023-04-29T05:15:01;10.20;99.90
65462;DHT22;53236;43.666;18.444;2023-04-29T05:17:29;10.10;99.90
65462;DHT22;53236;43.666;18.444;2023-04-29T05:19:55;10.20;99.90
65462;DHT22;53236;43.666;18.444;2023-04-29T05:22:21;10.20;99.90
65462;DHT22;53236;43.666;18.444;2023-04-29T05:24:46;10.30;99.90
65462;DHT22;53236;43.666;18.444;2023-04-29T05:27:17;10.30;99.90
65462;DHT22;53236;43.666;18.444;2023-04-29T05:29:43;10.30;99.90
65462;DHT22;53236;43.666;18.444;2023-04-29T05:32:09;10.40;99.90
65462;DHT22;53236;43.666;18.444;2023-04-29T05:34:35;10.30;99.90
65462;DHT22;53236;43.666;18.444;2023-04-29T05:37:01;10.30;99.90
65462;DHT22;53236;43.666;18.444;2023-04-29T05:39:26;10.30;99.90
65462;DHT22;53236;43.666;18.444;2023-04-29T05:41:52;10.30;99.90
65462;DHT22;53236;43.666;18.444;2023-04-29T05:44:18;10.40;99.90
65462;DHT22;53236;43.666;18.444;2023-04-29T05:46:44;10.40;99.90
65462;DHT22;53236;43.666;18.444;2023-04-29T05:49:10;10.40;99.90
65462;DHT22;53236;43.666;18.444;2023-04-29T05:51:36;10.30;99.90
65462;DHT22;53236;43.666;18.444;2023-04-29T05:54:02;10.30;99.90
65462;DHT22;53236;43.666;18.444;2023-04-29T05:56:27;10.30;99.90
65462;DHT22;53236;43.666;18.444;2023-04-29T05:58:53;10.30;99.90
65462;DHT22;53236;43.666;18.444;2023-04-29T06:01:19;10.40;99.90
65462;DHT22;53236;43.666;18.444;2023-04-29T06:03:46;10.40;99.90
65462;DHT22;53236;43.666;18.444;2023-04-29T06:06:11;10.50;99.90
65462;DHT22;53236;43.666;18.444;2023-04-29T06:08:37;10.60;99.90
65462;DHT22;53236;43.666;18.444;2023-04-29T06:11:03;10.70;99.90
65462;DHT22;53236;43.666;18.444;2023-04-29T06:13:31;10.90;99.90
65462;DHT22;53236;43.666;18.444;2023-04-29T06:15:56;10.90;99.90
65462;DHT22;53236;43.666;18.444;2023-04-29T06:18:22;11.00;99.90
65462;DHT22;53236;43.666;18.444;2023-04-29T06:20:48;11.20;99.90
65462;DHT22;53236;43.666;18.444;2023-04-29T06:23:14;11.30;99.90
65462;DHT22;53236;43.666;18.444;2023-04-29T06:25:39;11.60;99.90
65462;DHT22;53236;43.666;18.444;2023-04-29T06:28:05;11.90;99.90
65462;DHT22;53236;43.666;18.444;2023-04-29T06:30:33;12.20;99.90
65462;DHT22;53236;43.666;18.444;2023-04-29T06:32:58;12.40;99.90
65462;DHT22;53236;43.666;18.444;2023-04-29T06:35:24;12.40;99.90
65462;DHT22;53236;43.666;18.444;2023-04-29T06:37:50;12.30;99.90
65462;DHT22;53236;43.666;18.444;2023-04-29T06:40:17;12.30;99.90
65462;DHT22;53236;43.666;18.444;2023-04-29T06:42:43;12.00;99.90
65462;DHT22;53236;43.666;18.444;2023-04-29T06:45:09;12.00;99.90
65462;DHT22;53236;43.666;18.444;2023-04-29T06:47:35;11.90;99.90
65462;DHT22;53236;43.666;18.444;2023-04-29T06:50:00;11.90;99.90
65462;DHT22;53236;43.666;18.444;2023-04-29T06:52:26;12.10;99.90
65462;DHT22;53236;43.666;18.444;2023-04-29T06:54:52;12.20;99.90
65462;DHT22;53236;43.666;18.444;2023-04-29T06:57:17;12.50;99.90
65462;DHT22;53236;43.666;18.444;2023-04-29T06:59:43;12.70;99.90
65462;DHT22;53236;43.666;18.444;2023-04-29T07:02:09;13.10;99.90
65462;DHT22;53236;43.666;18.444;2023-04-29T07:04:35;13.60;99.90
65462;DHT22;53236;43.666;18.444;2023-04-29T07:07:02;13.90;99.90
65462;DHT22;53236;43.666;18.444;2023-04-29T07:09:28;14.20;99.90
65462;DHT22;53236;43.666;18.444;2023-04-29T07:11:54;14.70;99.90
65462;DHT22;53236;43.666;18.444;2023-04-29T07:14:20;14.90;99.90
65462;DHT22;53236;43.666;18.444;2023-04-29T07:16:54;15.00;99.90
65462;DHT22;53236;43.666;18.444;2023-04-29T07:19:20;15.20;99.90
65462;DHT22;53236;43.666;18.444;2023-04-29T07:21:46;15.00;99.90
65462;DHT22;53236;43.666;18.444;2023-04-29T07:24:12;15.30;99.90
65462;DHT22;53236;43.666;18.444;2023-04-29T07:26:37;15.40;99.00
65462;DHT22;53236;43.666;18.444;2023-04-29T07:29:03;15.50;97.40
65462;DHT22;53236;43.666;18.444;2023-04-29T07:31:29;15.60;91.30
65462;DHT22;53236;43.666;18.444;2023-04-29T07:33:55;15.50;92.20
65462;DHT22;53236;43.666;18.444;2023-04-29T07:36:22;15.30;95.60
65462;DHT22;53236;43.666;18.444;2023-04-29T07:38:48;15.50;95.00
65462;DHT22;53236;43.666;18.444;2023-04-29T07:41:14;15.50;98.10
65462;DHT22;53236;43.666;18.444;2023-04-29T07:43:40;15.50;96.50
65462;DHT22;53236;43.666;18.444;2023-04-29T07:46:05;15.70;96.00
65462;DHT22;53236;43.666;18.444;2023-04-29T07:48:36;15.90;94.20
65462;DHT22;53236;43.666;18.444;2023-04-29T07:51:02;15.90;94.70
65462;DHT22;53236;43.666;18.444;2023-04-29T07:53:28;15.80;91.50
65462;DHT22;53236;43.666;18.444;2023-04-29T07:55:54;15.70;92.10
65462;DHT22;53236;43.666;18.444;2023-04-29T07:58:20;15.60;87.00
65462;DHT22;53236;43.666;18.444;2023-04-29T08:00:46;15.50;91.90
65462;DHT22;53236;43.666;18.444;2023-04-29T08:03:12;15.70;90.80
65462;DHT22;53236;43.666;18.444;2023-04-29T08:05:38;15.80;92.80
65462;DHT22;53236;43.666;18.444;2023-04-29T08:08:04;15.70;93.20
65462;DHT22;53236;43.666;18.444;2023-04-29T08:10:30;15.80;93.90
65462;DHT22;53236;43.666;18.444;2023-04-29T08:12:56;15.90;95.60
65462;DHT22;53236;43.666;18.444;2023-04-29T08:15:22;16.00;90.90
65462;DHT22;53236;43.666;18.444;2023-04-29T08:17:48;16.20;84.20
65462;DHT22;53236;43.666;18.444;2023-04-29T08:20:14;16.50;80.40
65462;DHT22;53236;43.666;18.444;2023-04-29T08:22:39;16.70;75.60
65462;DHT22;53236;43.666;18.444;2023-04-29T08:25:06;16.80;73.40
65462;DHT22;53236;43.666;18.444;2023-04-29T08:27:32;17.00;70.80
65462;DHT22;53236;43.666;18.444;2023-04-29T08:29:58;17.10;69.40
65462;DHT22;53236;43.666;18.444;2023-04-29T08:32:23;17.10;70.90
65462;DHT22;53236;43.666;18.444;2023-04-29T08:34:49;17.10;69.90
65462;DHT22;53236;43.666;18.444;2023-04-29T08:37:15;17.30;70.10
65462;DHT22;53236;43.666;18.444;2023-04-29T08:39:41;17.30;69.10
65462;DHT22;53236;43.666;18.444;2023-04-29T08:42:13;17.20;71.10
65462;DHT22;53236;43.666;18.444;2023-04-29T08:44:39;16.90;67.10
65462;DHT22;53236;43.666;18.444;2023-04-29T08:47:05;16.80;71.30
65462;DHT22;53236;43.666;18.444;2023-04-29T08:49:32;16.70;71.40
65462;DHT22;53236;43.666;18.444;2023-04-29T08:51:58;16.70;71.60
65462;DHT22;53236;43.666;18.444;2023-04-29T08:54:25;16.60;70.30
65462;DHT22;53236;43.666;18.444;2023-04-29T08:56:52;16.60;69.10
65462;DHT22;53236;43.666;18.444;2023-04-29T08:59:20;16.40;71.50
65462;DHT22;53236;43.666;18.444;2023-04-29T09:01:47;16.30;72.20
65462;DHT22;53236;43.666;18.444;2023-04-29T09:06:57;16.20;77.00
65462;DHT22;53236;43.666;18.444;2023-04-29T09:09:24;16.20;79.60
65462;DHT22;53236;43.666;18.444;2023-04-29T09:11:50;16.10;81.30
65462;DHT22;53236;43.666;18.444;2023-04-29T09:14:17;16.00;89.90
65462;DHT22;53236;43.666;18.444;2023-04-29T09:16:46;16.00;84.80
65462;DHT22;53236;43.666;18.444;2023-04-29T09:19:28;16.00;82.30
65462;DHT22;53236;43.666;18.444;2023-04-29T09:21:55;15.90;90.50
65462;DHT22;53236;43.666;18.444;2023-04-29T09:24:25;16.00;90.60
65462;DHT22;53236;43.666;18.444;2023-04-29T09:26:52;16.10;80.20
65462;DHT22;53236;43.666;18.444;2023-04-29T09:29:18;16.10;74.10
65462;DHT22;53236;43.666;18.444;2023-04-29T09:31:44;16.20;74.70
65462;DHT22;53236;43.666;18.444;2023-04-29T09:34:11;16.50;71.50
65462;DHT22;53236;43.666;18.444;2023-04-29T09:39:24;17.50;66.40
65462;DHT22;53236;43.666;18.444;2023-04-29T09:44:30;17.90;64.20
65462;DHT22;53236;43.666;18.444;2023-04-29T09:47:05;18.20;60.50
65462;DHT22;53236;43.666;18.444;2023-04-29T09:49:35;18.20;58.70
65462;DHT22;53236;43.666;18.444;2023-04-29T09:52:04;18.00;58.30
65462;DHT22;53236;43.666;18.444;2023-04-29T09:54:34;17.80;58.30
65462;DHT22;53236;43.666;18.444;2023-04-29T09:57:05;17.70;59.80
65462;DHT22;53236;43.666;18.444;2023-04-29T09:59:35;17.70;57.90
65462;DHT22;53236;43.666;18.444;2023-04-29T10:02:15;17.90;59.00
65462;DHT22;53236;43.666;18.444;2023-04-29T10:04:44;18.30;55.90
65462;DHT22;53236;43.666;18.444;2023-04-29T10:07:14;19.00;54.50
65462;DHT22;53236;43.666;18.444;2023-04-29T10:09:41;19.70;54.30
65462;DHT22;53236;43.666;18.444;2023-04-29T10:12:09;20.10;52.00
65462;DHT22;53236;43.666;18.444;2023-04-29T10:14:41;20.60;51.00
65462;DHT22;53236;43.666;18.444;2023-04-29T10:17:17;20.60;51.60
65462;DHT22;53236;43.666;18.444;2023-04-29T10:19:52;20.60;52.90
65462;DHT22;53236;43.666;18.444;2023-04-29T10:22:30;20.60;50.00
65462;DHT22;53236;43.666;18.444;2023-04-29T10:25:00;20.80;51.40
65462;DHT22;53236;43.666;18.444;2023-04-29T10:27:28;20.80;50.00
65462;DHT22;53236;43.666;18.444;2023-04-29T10:29:56;21.30;50.00
65462;DHT22;53236;43.666;18.444;2023-04-29T10:32:24;21.80;51.30
65462;DHT22;53236;43.666;18.444;2023-04-29T10:34:53;21.60;50.70
65462;DHT22;53236;43.666;18.444;2023-04-29T10:37:20;21.40;49.20
65462;DHT22;53236;43.666;18.444;2023-04-29T10:39:58;21.40;50.10
65462;DHT22;53236;43.666;18.444;2023-04-29T10:42:42;21.40;51.90
65462;DHT22;53236;43.666;18.444;2023-04-29T10:53:14;21.70;51.70
65462;DHT22;53236;43.666;18.444;2023-04-29T10:55:41;21.90;50.40
65462;DHT22;53236;43.666;18.444;2023-04-29T10:58:35;22.20;50.80
65462;DHT22;53236;43.666;18.444;2023-04-29T11:01:02;22.30;49.50
65462;DHT22;53236;43.666;18.444;2023-04-29T11:03:46;22.10;47.00
65462;DHT22;53236;43.666;18.444;2023-04-29T11:06:13;21.40;48.90
65462;DHT22;53236;43.666;18.444;2023-04-29T11:08:40;21.10;50.00
65462;DHT22;53236;43.666;18.444;2023-04-29T11:11:07;20.70;51.10
65462;DHT22;53236;43.666;18.444;2023-04-29T11:13:38;20.50;51.20
65462;DHT22;53236;43.666;18.444;2023-04-29T11:18:30;20.70;52.10
65462;DHT22;53236;43.666;18.444;2023-04-29T11:23:34;21.10;50.00
65462;DHT22;53236;43.666;18.444;2023-04-29T11:26:01;21.30;50.70
65462;DHT22;53236;43.666;18.444;2023-04-29T11:28:29;21.00;50.10
65462;DHT22;53236;43.666;18.444;2023-04-29T11:30:56;20.70;52.30
65462;DHT22;53236;43.666;18.444;2023-04-29T11:33:23;20.30;51.30
65462;DHT22;53236;43.666;18.444;2023-04-29T11:35:50;20.00;51.90
65462;DHT22;53236;43.666;18.444;2023-04-29T11:38:16;19.80;52.40
65462;DHT22;53236;43.666;18.444;2023-04-29T11:40:48;19.60;52.60
65462;DHT22;53236;43.666;18.444;2023-04-29T11:43:18;19.50;53.80
65462;DHT22;53236;43.666;18.444;2023-04-29T11:45:45;19.80;55.90
65462;DHT22;53236;43.666;18.444;2023-04-29T11:48:21;20.30;53.60
65462;DHT22;53236;43.666;18.444;2023-04-29T11:50:49;20.30;53.20
65462;DHT22;53236;43.666;18.444;2023-04-29T11:53:18;20.30;54.90
65462;DHT22;53236;43.666;18.444;2023-04-29T11:55:45;20.70;53.80
65462;DHT22;53236;43.666;18.444;2023-04-29T11:58:11;20.90;52.10
65462;DHT22;53236;43.666;18.444;2023-04-29T12:00:37;21.40;52.10
65462;DHT22;53236;43.666;18.444;2023-04-29T12:03:18;21.20;51.40
65462;DHT22;53236;43.666;18.444;2023-04-29T12:05:50;21.00;52.10
65462;DHT22;53236;43.666;18.444;2023-04-29T12:08:28;21.20;52.30
65462;DHT22;53236;43.666;18.444;2023-04-29T12:10:59;21.30;50.70
65462;DHT22;53236;43.666;18.444;2023-04-29T12:13:27;21.00;51.30
65462;DHT22;53236;43.666;18.444;2023-04-29T12:15:54;21.00;51.90
65462;DHT22;53236;43.666;18.444;2023-04-29T12:18:21;20.70;52.70
65462;DHT22;53236;43.666;18.444;2023-04-29T12:20:48;20.70;52.80
65462;DHT22;53236;43.666;18.444;2023-04-29T12:23:21;20.80;53.80
65462;DHT22;53236;43.666;18.444;2023-04-29T12:25:51;20.90;51.60
65462;DHT22;53236;43.666;18.444;2023-04-29T12:28:18;21.10;53.00
65462;DHT22;53236;43.666;18.444;2023-04-29T12:30:49;20.90;54.10
65462;DHT22;53236;43.666;18.444;2023-04-29T12:33:24;20.90;53.50
65462;DHT22;53236;43.666;18.444;2023-04-29T12:35:53;20.90;53.20
65462;DHT22;53236;43.666;18.444;2023-04-29T12:38:31;20.40;52.20
65462;DHT22;53236;43.666;18.444;2023-04-29T12:40:59;20.10;53.80
65462;DHT22;53236;43.666;18.444;2023-04-29T12:43:30;20.00;54.70
65462;DHT22;53236;43.666;18.444;2023-04-29T12:46:08;19.90;54.20
65462;DHT22;53236;43.666;18.444;2023-04-29T12:48:36;19.90;54.00
65462;DHT22;53236;43.666;18.444;2023-04-29T12:51:11;19.90;54.60
65462;DHT22;53236;43.666;18.444;2023-04-29T12:53:37;20.10;55.20
65462;DHT22;53236;43.666;18.444;2023-04-29T12:56:04;20.60;55.80
65462;DHT22;53236;43.666;18.444;2023-04-29T12:58:30;20.90;53.30
65462;DHT22;53236;43.666;18.444;2023-04-29T13:00:59;21.00;52.50
65462;DHT22;53236;43.666;18.444;2023-04-29T13:03:25;20.90;51.80
65462;DHT22;53236;43.666;18.444;2023-04-29T13:05:51;20.70;53.50
65462;DHT22;53236;43.666;18.444;2023-04-29T13:08:19;20.60;53.10
65462;DHT22;53236;43.666;18.444;2023-04-29T13:10:45;20.30;53.30
65462;DHT22;53236;43.666;18.444;2023-04-29T13:13:11;20.00;53.90
65462;DHT22;53236;43.666;18.444;2023-04-29T13:15:37;20.00;54.70
65462;DHT22;53236;43.666;18.444;2023-04-29T13:18:05;20.10;53.30
65462;DHT22;53236;43.666;18.444;2023-04-29T13:20:31;19.80;54.50
65462;DHT22;53236;43.666;18.444;2023-04-29T13:22:58;19.70;55.20
65462;DHT22;53236;43.666;18.444;2023-04-29T13:25:23;19.80;54.60
65462;DHT22;53236;43.666;18.444;2023-04-29T13:27:49;19.60;54.80
65462;DHT22;53236;43.666;18.444;2023-04-29T13:30:15;19.40;55.50
65462;DHT22;53236;43.666;18.444;2023-04-29T13:32:41;19.50;55.00
65462;DHT22;53236;43.666;18.444;2023-04-29T13:35:07;19.40;55.30
65462;DHT22;53236;43.666;18.444;2023-04-29T13:37:33;19.60;56.40
65462;DHT22;53236;43.666;18.444;2023-04-29T13:39:59;19.80;57.30
65462;DHT22;53236;43.666;18.444;2023-04-29T13:42:25;19.90;55.10
65462;DHT22;53236;43.666;18.444;2023-04-29T13:44:51;20.20;56.30
65462;DHT22;53236;43.666;18.444;2023-04-29T13:47:18;20.30;54.30
65462;DHT22;53236;43.666;18.444;2023-04-29T13:49:45;20.30;55.20
65462;DHT22;53236;43.666;18.444;2023-04-29T13:52:11;20.10;54.40
65462;DHT22;53236;43.666;18.444;2023-04-29T13:54:37;20.00;54.90
65462;DHT22;53236;43.666;18.444;2023-04-29T13:57:03;19.80;55.00
65462;DHT22;53236;43.666;18.444;2023-04-29T13:59:33;19.60;55.60
65462;DHT22;53236;43.666;18.444;2023-04-29T14:01:59;19.80;55.90
65462;DHT22;53236;43.666;18.444;2023-04-29T14:04:26;20.10;56.20
65462;DHT22;53236;43.666;18.444;2023-04-29T14:06:53;20.20;55.30
65462;DHT22;53236;43.666;18.444;2023-04-29T14:09:19;20.30;55.50
65462;DHT22;53236;43.666;18.444;2023-04-29T14:11:46;20.40;56.00
65462;DHT22;53236;43.666;18.444;2023-04-29T14:14:11;20.40;54.30
65462;DHT22;53236;43.666;18.444;2023-04-29T14:16:37;20.40;53.90
65462;DHT22;53236;43.666;18.444;2023-04-29T14:19:03;20.40;53.20
65462;DHT22;53236;43.666;18.444;2023-04-29T14:21:29;20.20;54.80
65462;DHT22;53236;43.666;18.444;2023-04-29T14:24:01;20.30;54.50
65462;DHT22;53236;43.666;18.444;2023-04-29T14:26:28;20.00;54.60
65462;DHT22;53236;43.666;18.444;2023-04-29T14:28:57;19.70;55.10
65462;DHT22;53236;43.666;18.444;2023-04-29T14:31:33;19.60;54.30
65462;DHT22;53236;43.666;18.444;2023-04-29T14:34:05;19.40;55.70
65462;DHT22;53236;43.666;18.444;2023-04-29T14:36:31;19.30;55.60
65462;DHT22;53236;43.666;18.444;2023-04-29T14:39:00;19.30;56.20
65462;DHT22;53236;43.666;18.444;2023-04-29T14:41:26;19.30;56.20
65462;DHT22;53236;43.666;18.444;2023-04-29T14:43:52;19.30;55.70
65462;DHT22;53236;43.666;18.444;2023-04-29T14:46:18;19.40;56.70
65462;DHT22;53236;43.666;18.444;2023-04-29T14:48:44;19.60;55.10
65462;DHT22;53236;43.666;18.444;2023-04-29T14:51:10;19.80;54.80
65462;DHT22;53236;43.666;18.444;2023-04-29T14:53:36;20.00;54.10
65462;DHT22;53236;43.666;18.444;2023-04-29T14:56:02;19.80;54.70
65462;DHT22;53236;43.666;18.444;2023-04-29T14:58:28;19.80;55.70
65462;DHT22;53236;43.666;18.444;2023-04-29T15:00:54;19.80;55.00
65462;DHT22;53236;43.666;18.444;2023-04-29T15:03:21;19.70;54.90
65462;DHT22;53236;43.666;18.444;2023-04-29T15:05:47;19.60;56.70
65462;DHT22;53236;43.666;18.444;2023-04-29T15:08:15;19.90;55.70
65462;DHT22;53236;43.666;18.444;2023-04-29T15:10:43;20.00;56.00
65462;DHT22;53236;43.666;18.444;2023-04-29T15:13:14;20.10;55.70
65462;DHT22;53236;43.666;18.444;2023-04-29T15:15:39;20.30;55.30
65462;DHT22;53236;43.666;18.444;2023-04-29T15:18:05;20.10;53.30
65462;DHT22;53236;43.666;18.444;2023-04-29T15:20:34;20.10;53.60
65462;DHT22;53236;43.666;18.444;2023-04-29T15:23:00;20.00;56.50
65462;DHT22;53236;43.666;18.444;2023-04-29T15:25:25;19.80;55.70
65462;DHT22;53236;43.666;18.444;2023-04-29T15:27:51;19.80;54.30
65462;DHT22;53236;43.666;18.444;2023-04-29T15:30:17;19.80;54.30
65462;DHT22;53236;43.666;18.444;2023-04-29T15:32:43;19.80;55.60
65462;DHT22;53236;43.666;18.444;2023-04-29T15:35:09;19.60;55.40
65462;DHT22;53236;43.666;18.444;2023-04-29T15:37:37;19.60;55.20
65462;DHT22;53236;43.666;18.444;2023-04-29T15:40:03;19.60;55.90
65462;DHT22;53236;43.666;18.444;2023-04-29T15:42:29;19.30;55.90
65462;DHT22;53236;43.666;18.444;2023-04-29T15:44:55;19.20;56.10
65462;DHT22;53236;43.666;18.444;2023-04-29T15:47:21;19.10;56.80